sensor_id;sensor_type;location;lat;lon;timestamp;temperature;humidity
20204;DHT22;10261;49.010;12.034;2023-04-12T00:00:17;7.60;99.90
20204;DHT22;10261;49.010;12.034;2023-04-12T00:01:20;7.50;99.90
20204;DHT22;10261;49.010;12.034;2023-04-12T00:02:22;7.50;99.90
20204;DHT22;10261;49.010;12.034;2023-04-12T00:03:25;7.50;99.90
20204;DHT22;10261;49.010;12.034;2023-04-12T00:04:28;7.50;99.90
20204;DHT22;10261;49.010;12.034;2023-04-12T00:05:31;7.60;99.90
20204;DHT22;10261;49.010;12.034;2023-04-12T00:06:33;7.60;99.90
20204;DHT22;10261;49.010;12.034;2023-04-12T00:07:36;7.60;99.90
20204;DHT22;10261;49.010;12.034;2023-04-12T00:08:39;7.70;99.90
20204;DHT22;10261;49.010;12.034;2023-04-12T00:09:43;7.70;99.90
20204;DHT22;10261;49.010;12.034;2023-04-12T00:10:45;7.70;99.90
20204;DHT22;10261;49.010;12.034;2023-04-12T00:11:48;7.60;99.90
20204;DHT22;10261;49.010;12.034;2023-04-12T00:12:50;7.60;99.90
20204;DHT22;10261;49.010;12.034;2023-04-12T00:13:54;7.60;99.90
20204;DHT22;10261;49.010;12.034;2023-04-12T00:14:58;7.70;99.90
20204;DHT22;10261;49.010;12.034;2023-04-12T00:16:08;7.60;99.90
20204;DHT22;10261;49.010;12.034;2023-04-12T00:17:10;7.60;99.90
20204;DHT22;10261;49.010;12.034;2023-04-12T00:18:13;7.60;99.90
20204;DHT22;10261;49.010;12.034;2023-04-12T00:19:15;7.60;99.90
20204;DHT22;10261;49.010;12.034;2023-04-12T00:21:20;7.60;99.90
20204;DHT22;10261;49.010;12.034;2023-04-12T00:22:24;7.50;99.90
20204;DHT22;10261;49.010;12.034;2023-04-12T00:23:27;7.50;99.90
20204;DHT22;10261;49.010;12.034;2023-04-12T00:24:30;7.50;99.90
20204;DHT22;10261;49.010;12.034;2023-04-12T00:25:31;7.50;99.90
20204;DHT22;10261;49.010;12.034;2023-04-12T00:27:37;7.50;99.90
20204;DHT22;10261;49.010;12.034;2023-04-12T00:28:41;7.50;99.90
20204;DHT22;10261;49.010;12.034;2023-04-12T00:29:43;7.50;99.90
20204;DHT22;10261;49.010;12.034;2023-04-12T00:30:48;7.50;99.90
20204;DHT22;10261;49.010;12.034;2023-04-12T00:31:49;7.50;99.90
20204;DHT22;10261;49.010;12.034;2023-04-12T00:32:52;7.50;99.90
20204;DHT22;10261;49.010;12.034;2023-04-12T00:33:54;7.50;99.90
20204;DHT22;10261;49.010;12.034;2023-04-12T00:34:58;7.50;99.90
20204;DHT22;10261;49.010;12.034;2023-04-12T00:36:00;7.50;99.90
20204;DHT22;10261;49.010;12.034;2023-04-12T00:37:03;7.40;99.90
20204;DHT22;10261;49.010;12.034;2023-04-12T00:38:05;7.50;99.90
20204;DHT22;10261;49.010;12.034;2023-04-12T00:39:11;7.50;99.90
20204;DHT22;10261;49.010;12.034;2023-04-12T00:40:13;7.50;99.90
20204;DHT22;10261;49.010;12.034;2023-04-12T00:41:16;7.40;99.90
20204;DHT22;10261;49.010;12.034;2023-04-12T00:42:18;7.40;99.90
20204;DHT22;10261;49.010;12.034;2023-04-12T00:43:22;7.40;99.90
20204;DHT22;10261;49.010;12.034;2023-04-12T00:45:31;7.40;99.90
20204;DHT22;10261;49.010;12.034;2023-04-12T00:46:34;7.40;99.90
20204;DHT22;10261;49.010;12.034;2023-04-12T00:47:40;7.40;99.90
20204;DHT22;10261;49.010;12.034;2023-04-12T00:48:43;7.40;99.90
20204;DHT22;10261;49.010;12.034;2023-04-12T00:49:48;7.40;99.90
20204;DHT22;10261;49.010;12.034;2023-04-12T00:50:51;7.40;99.90
20204;DHT22;10261;49.010;12.034;2023-04-12T00:51:57;7.40;99.90
20204;DHT22;10261;49.010;12.034;2023-04-12T00:53:04;7.40;99.90
20204;DHT22;10261;49.010;12.034;2023-04-12T00:54:07;7.50;99.90
20204;DHT22;10261;49.010;12.034;2023-04-12T00:55:09;7.50;99.90
20204;DHT22;10261;49.010;12.034;2023-04-12T00:56:12;7.40;99.90
20204;DHT22;10261;49.010;12.034;2023-04-12T00:57:15;7.40;99.90
20204;DHT22;10261;49.010;12.034;2023-04-12T00:58:20;7.50;99.90
20204;DHT22;10261;49.010;12.034;2023-04-12T00:59:23;7.50;99.90
20204;DHT22;10261;49.010;12.034;2023-04-12T01:00:26;7.50;99.90
20204;DHT22;10261;49.010;12.034;2023-04-12T01:02:34;7.50;99.90
20204;DHT22;10261;49.010;12.034;2023-04-12T01:03:36;7.50;99.90
20204;DHT22;10261;49.010;12.034;2023-04-12T01:04:44;7.50;99.90
20204;DHT22;10261;49.010;12.034;2023-04-12T01:05:51;7.50;99.90
20204;DHT22;10261;49.010;12.034;2023-04-12T01:07:08;7.50;99.90
20204;DHT22;10261;49.010;12.034;2023-04-12T01:08:25;7.50;99.90
20204;DHT22;10261;49.010;12.034;2023-04-12T01:09:35;7.50;99.90
20204;DHT22;10261;49.010;12.034;2023-04-12T01:10:45;7.50;99.90
20204;DHT22;10261;49.010;12.034;2023-04-12T01:11:58;7.60;99.90
20204;DHT22;10261;49.010;12.034;2023-04-12T01:13:11;7.50;99.90
20204;DHT22;10261;49.010;12.034;2023-04-12T01:14:21;7.50;99.90
20204;DHT22;10261;49.010;12.034;2023-04-12T01:15:26;7.60;99.90
20204;DHT22;10261;49.010;12.034;2023-04-12T01:16:36;7.50;99.90
20204;DHT22;10261;49.010;12.034;2023-04-12T01:17:50;7.50;99.90
20204;DHT22;10261;49.010;12.034;2023-04-12T01:18:58;7.60;99.90
20204;DHT22;10261;49.010;12.034;2023-04-12T01:20:06;7.70;99.90
20204;DHT22;10261;49.010;12.034;2023-04-12T01:21:17;7.60;99.90
20204;DHT22;10261;49.010;12.034;2023-04-12T01:22:33;7.60;99.90
20204;DHT22;10261;49.010;12.034;2023-04-12T01:23:54;7.50;99.90
20204;DHT22;10261;49.010;12.034;2023-04-12T01:25:08;7.50;99.90
20204;DHT22;10261;49.010;12.034;2023-04-12T01:26:30;7.60;99.90
20204;DHT22;10261;49.010;12.034;2023-04-12T01:27:40;7.70;99.90
20204;DHT22;10261;49.010;12.034;2023-04-12T01:28:44;7.60;99.90
20204;DHT22;10261;49.010;12.034;2023-04-12T01:29:47;7.60;99.90
20204;DHT22;10261;49.010;12.034;2023-04-12T01:30:52;7.60;99.90
20204;DHT22;10261;49.010;12.034;2023-04-12T01:31:58;7.60;99.90
20204;DHT22;10261;49.010;12.034;2023-04-12T01:33:04;7.50;99.90
20204;DHT22;10261;49.010;12.034;2023-04-12T01:34:09;7.60;99.90
20204;DHT22;10261;49.010;12.034;2023-04-12T01:35:13;7.60;99.90
20204;DHT22;10261;49.010;12.034;2023-04-12T01:36:17;7.60;99.90
20204;DHT22;10261;49.010;12.034;2023-04-12T01:37:20;7.60;99.90
20204;DHT22;10261;49.010;12.034;2023-04-12T01:38:23;7.60;99.90
20204;DHT22;10261;49.010;12.034;2023-04-12T01:39:27;7.60;99.90
20204;DHT22;10261;49.010;12.034;2023-04-12T01:40:30;7.70;99.90
20204;DHT22;10261;49.010;12.034;2023-04-12T01:41:38;7.70;99.90
20204;DHT22;10261;49.010;12.034;2023-04-12T01:42:41;7.60;99.90
20204;DHT22;10261;49.010;12.034;2023-04-12T01:43:45;7.70;99.90
20204;DHT22;10261;49.010;12.034;2023-04-12T01:44:48;7.70;99.90
20204;DHT22;10261;49.010;12.034;2023-04-12T01:45:51;7.80;99.90
20204;DHT22;10261;49.010;12.034;2023-04-12T01:46:53;7.70;99.90
20204;DHT22;10261;49.010;12.034;2023-04-12T01:48:59;7.70;99.90
20204;DHT22;10261;49.010;12.034;2023-04-12T01:50:11;7.70;99.90
20204;DHT22;10261;49.010;12.034;2023-04-12T01:51:19;7.70;99.90
20204;DHT22;10261;49.010;12.034;2023-04-12T01:52:31;7.70;99.90
20204;DHT22;10261;49.010;12.034;2023-04-12T01:53:44;7.70;99.90
20204;DHT22;10261;49.010;12.034;2023-04-12T01:54:53;7.80;99.90
20204;DHT22;10261;49.010;12.034;2023-04-12T01:56:03;7.80;99.90
20204;DHT22;10261;49.010;12.034;2023-04-12T01:57:08;7.80;99.90
20204;DHT22;10261;49.010;12.034;2023-04-12T01:58:18;7.80;99.90
20204;DHT22;10261;49.010;12.034;2023-04-12T01:59:21;7.70;99.90
20204;DHT22;10261;49.010;12.034;2023-04-12T02:00:26;7.80;99.90
20204;DHT22;10261;49.010;12.034;2023-04-12T02:01:29;7.80;99.90
20204;DHT22;10261;49.010;12.034;2023-04-12T02:02:32;7.70;99.90
20204;DHT22;10261;49.010;12.034;2023-04-12T02:03:38;7.80;99.90
20204;DHT22;10261;49.010;12.034;2023-04-12T02:04:43;7.80;99.90
20204;DHT22;10261;49.010;12.034;2023-04-12T02:05:46;7.90;99.90
20204;DHT22;10261;49.010;12.034;2023-04-12T02:06:49;7.90;99.90
20204;DHT22;10261;49.010;12.034;2023-04-12T02:07:51;7.90;99.90
20204;DHT22;10261;49.010;12.034;2023-04-12T02:08:57;7.90;99.90
20204;DHT22;10261;49.010;12.034;2023-04-12T02:09:59;7.90;99.90
20204;DHT22;10261;49.010;12.034;2023-04-12T02:11:07;7.90;99.90
20204;DHT22;10261;49.010;12.034;2023-04-12T02:12:09;7.90;99.90
20204;DHT22;10261;49.010;12.034;2023-04-12T02:13:12;7.90;99.90
20204;DHT22;10261;49.010;12.034;2023-04-12T02:14:15;7.90;99.90
20204;DHT22;10261;49.010;12.034;2023-04-12T02:15:18;7.90;99.90
20204;DHT22;10261;49.010;12.034;2023-04-12T02:16:21;7.90;99.90
20204;DHT22;10261;49.010;12.034;2023-04-12T02:17:25;7.80;99.90
20204;DHT22;10261;49.010;12.034;2023-04-12T02:18:27;7.80;99.90
20204;DHT22;10261;49.010;12.034;2023-04-12T02:19:30;7.80;99.90
20204;DHT22;10261;49.010;12.034;2023-04-12T02:20:33;7.90;99.90
20204;DHT22;10261;49.010;12.034;2023-04-12T02:21:39;7.80;99.90
20204;DHT22;10261;49.010;12.034;2023-04-12T02:22:42;7.90;99.90
20204;DHT22;10261;49.010;12.034;2023-04-12T02:23:45;7.80;99.90
20204;DHT22;10261;49.010;12.034;2023-04-12T02:24:47;7.80;99.90
20204;DHT22;10261;49.010;12.034;2023-04-12T02:25:50;7.90;99.90
20204;DHT22;10261;49.010;12.034;2023-04-12T02:26:52;7.90;99.90
20204;DHT22;10261;49.010;12.034;2023-04-12T02:27:55;7.90;99.90
20204;DHT22;10261;49.010;12.034;2023-04-12T02:28:57;7.90;99.90
20204;DHT22;10261;49.010;12.034;2023-04-12T02:30:02;7.80;99.90
20204;DHT22;10261;49.010;12.034;2023-04-12T02:31:06;7.80;99.90
20204;DHT22;10261;49.010;12.034;2023-04-12T02:32:09;7.90;99.90
20204;DHT22;10261;49.010;12.034;2023-04-12T02:33:11;7.90;99.90
20204;DHT22;10261;49.010;12.034;2023-04-12T02:34:16;7.80;99.90
20204;DHT22;10261;49.010;12.034;2023-04-12T02:35:19;7.80;99.90
20204;DHT22;10261;49.010;12.034;2023-04-12T02:36:21;7.80;99.90
20204;DHT22;10261;49.010;12.034;2023-04-12T02:37:25;7.80;99.90
20204;DHT22;10261;49.010;12.034;2023-04-12T02:38:30;7.80;99.90
20204;DHT22;10261;49.010;12.034;2023-04-12T02:39:32;7.90;99.90
20204;DHT22;10261;49.010;12.034;2023-04-12T02:40:37;7.90;99.90
20204;DHT22;10261;49.010;12.034;2023-04-12T02:41:40;7.90;99.90
20204;DHT22;10261;49.010;12.034;2023-04-12T02:42:43;7.90;99.90
20204;DHT22;10261;49.010;12.034;2023-04-12T02:43:45;7.90;99.90
20204;DHT22;10261;49.010;12.034;2023-04-12T02:44:48;7.90;99.90
20204;DHT22;10261;49.010;12.034;2023-04-12T02:45:52;7.90;99.90
20204;DHT22;10261;49.010;12.034;2023-04-12T02:46:55;8.00;99.90
20204;DHT22;10261;49.010;12.034;2023-04-12T02:47:56;8.00;99.90
20204;DHT22;10261;49.010;12.034;2023-04-12T02:50:02;8.00;99.90
20204;DHT22;10261;49.010;12.034;2023-04-12T02:51:05;8.00;99.90
20204;DHT22;10261;49.010;12.034;2023-04-12T02:53:11;7.90;99.90
20204;DHT22;10261;49.010;12.034;2023-04-12T02:54:13;7.90;99.90
20204;DHT22;10261;49.010;12.034;2023-04-12T02:55:16;7.90;99.90
20204;DHT22;10261;49.010;12.034;2023-04-12T02:57:22;7.90;99.90
20204;DHT22;10261;49.010;12.034;2023-04-12T02:59:28;7.90;99.90
20204;DHT22;10261;49.010;12.034;2023-04-12T03:00:30;7.90;99.90
20204;DHT22;10261;49.010;12.034;2023-04-12T03:01:34;7.90;99.90
20204;DHT22;10261;49.010;12.034;2023-04-12T03:03:40;7.90;99.90
20204;DHT22;10261;49.010;12.034;2023-04-12T03:05:47;7.90;99.90
20204;DHT22;10261;49.010;12.034;2023-04-12T03:06:50;7.90;99.90
20204;DHT22;10261;49.010;12.034;2023-04-12T03:07:54;7.90;99.90
20204;DHT22;10261;49.010;12.034;2023-04-12T03:10:00;7.90;99.90
20204;DHT22;10261;49.010;12.034;2023-04-12T03:11:02;7.90;99.90
20204;DHT22;10261;49.010;12.034;2023-04-12T03:12:05;7.90;99.90
20204;DHT22;10261;49.010;12.034;2023-04-12T03:13:07;7.90;99.90
20204;DHT22;10261;49.010;12.034;2023-04-12T03:14:10;8.00;99.90
20204;DHT22;10261;49.010;12.034;2023-04-12T03:15:12;8.00;99.90
20204;DHT22;10261;49.010;12.034;2023-04-12T03:16:21;8.00;99.90
20204;DHT22;10261;49.010;12.034;2023-04-12T03:17:25;8.00;99.90
20204;DHT22;10261;49.010;12.034;2023-04-12T03:18:28;8.00;99.90
20204;DHT22;10261;49.010;12.034;2023-04-12T03:19:30;8.00;99.90
20204;DHT22;10261;49.010;12.034;2023-04-12T03:20:36;8.10;99.90
20204;DHT22;10261;49.010;12.034;2023-04-12T03:21:39;8.10;99.90
20204;DHT22;10261;49.010;12.034;2023-04-12T03:23:44;8.10;99.90
20204;DHT22;10261;49.010;12.034;2023-04-12T03:24:47;8.10;99.90
20204;DHT22;10261;49.010;12.034;2023-04-12T03:25:50;8.10;99.90
20204;DHT22;10261;49.010;12.034;2023-04-12T03:26:53;8.10;99.90
20204;DHT22;10261;49.010;12.034;2023-04-12T03:27:55;8.10;99.90
20204;DHT22;10261;49.010;12.034;2023-04-12T03:29:00;8.10;99.90
20204;DHT22;10261;49.010;12.034;2023-04-12T03:30:03;8.00;99.90
20204;DHT22;10261;49.010;12.034;2023-04-12T03:31:07;8.00;99.90
20204;DHT22;10261;49.010;12.034;2023-04-12T03:32:09;8.00;99.90
20204;DHT22;10261;49.010;12.034;2023-04-12T03:33:13;7.90;99.90
20204;DHT22;10261;49.010;12.034;2023-04-12T03:34:15;8.00;99.90
20204;DHT22;10261;49.010;12.034;2023-04-12T03:35:18;7.90;99.90
20204;DHT22;10261;49.010;12.034;2023-04-12T03:36:20;7.00;99.90
20204;DHT22;10261;49.010;12.034;2023-04-12T03:37:23;6.60;99.90
20204;DHT22;10261;49.010;12.034;2023-04-12T03:38:25;7.00;99.90
20204;DHT22;10261;49.010;12.034;2023-04-12T03:39:28;7.30;99.90
20204;DHT22;10261;49.010;12.034;2023-04-12T03:40:30;7.50;99.90
20204;DHT22;10261;49.010;12.034;2023-04-12T03:41:33;7.70;99.90
20204;DHT22;10261;49.010;12.034;2023-04-12T03:42:35;7.80;99.90
20204;DHT22;10261;49.010;12.034;2023-04-12T03:43:38;7.90;99.90
20204;DHT22;10261;49.010;12.034;2023-04-12T03:44:41;7.90;99.90
20204;DHT22;10261;49.010;12.034;2023-04-12T03:45:44;7.90;99.90
20204;DHT22;10261;49.010;12.034;2023-04-12T03:46:46;7.90;99.90
20204;DHT22;10261;49.010;12.034;2023-04-12T03:47:50;7.90;99.90
20204;DHT22;10261;49.010;12.034;2023-04-12T03:48:53;7.90;99.90
20204;DHT22;10261;49.010;12.034;2023-04-12T03:50:02;8.00;99.90
20204;DHT22;10261;49.010;12.034;2023-04-12T03:51:07;7.90;99.90
20204;DHT22;10261;49.010;12.034;2023-04-12T03:52:12;7.90;99.90
20204;DHT22;10261;49.010;12.034;2023-04-12T03:53:14;7.90;99.90
20204;DHT22;10261;49.010;12.034;2023-04-12T03:54:17;7.90;99.90
20204;DHT22;10261;49.010;12.034;2023-04-12T03:55:19;7.90;99.90
20204;DHT22;10261;49.010;12.034;2023-04-12T03:56:22;8.00;99.90
20204;DHT22;10261;49.010;12.034;2023-04-12T03:57:24;8.00;99.90
20204;DHT22;10261;49.010;12.034;2023-04-12T03:58:27;8.00;99.90
20204;DHT22;10261;49.010;12.034;2023-04-12T03:59:29;8.10;99.90
20204;DHT22;10261;49.010;12.034;2023-04-12T04:00:33;8.10;99.90
20204;DHT22;10261;49.010;12.034;2023-04-12T04:02:39;8.10;99.90
20204;DHT22;10261;49.010;12.034;2023-04-12T04:04:47;8.00;99.90
20204;DHT22;10261;49.010;12.034;2023-04-12T04:05:50;8.10;99.90
20204;DHT22;10261;49.010;12.034;2023-04-12T04:06:53;8.10;99.90
20204;DHT22;10261;49.010;12.034;2023-04-12T04:07:55;8.10;99.90
20204;DHT22;10261;49.010;12.034;2023-04-12T04:09:01;8.10;99.90
20204;DHT22;10261;49.010;12.034;2023-04-12T04:10:03;8.10;99.90
20204;DHT22;10261;49.010;12.034;2023-04-12T04:13:13;8.00;99.90
20204;DHT22;10261;49.010;12.034;2023-04-12T04:15:18;8.00;99.90
20204;DHT22;10261;49.010;12.034;2023-04-12T04:16:20;7.90;99.90
20204;DHT22;10261;49.010;12.034;2023-04-12T04:17:23;8.00;99.90
20204;DHT22;10261;49.010;12.034;2023-04-12T04:18:25;8.10;99.90
20204;DHT22;10261;49.010;12.034;2023-04-12T04:20:32;8.00;99.90
20204;DHT22;10261;49.010;12.034;2023-04-12T04:21:37;8.00;99.90
20204;DHT22;10261;49.010;12.034;2023-04-12T04:22:41;8.10;99.90
20204;DHT22;10261;49.010;12.034;2023-04-12T04:23:43;8.10;99.90
20204;DHT22;10261;49.010;12.034;2023-04-12T04:24:48;8.10;99.90
20204;DHT22;10261;49.010;12.034;2023-04-12T04:26:55;8.10;99.90
20204;DHT22;10261;49.010;12.034;2023-04-12T04:27:57;8.10;99.90
20204;DHT22;10261;49.010;12.034;2023-04-12T04:29:00;8.00;99.90
20204;DHT22;10261;49.010;12.034;2023-04-12T04:30:03;8.00;99.90
20204;DHT22;10261;49.010;12.034;2023-04-12T04:31:07;8.00;99.90
20204;DHT22;10261;49.010;12.034;2023-04-12T04:32:11;8.00;99.90
20204;DHT22;10261;49.010;12.034;2023-04-12T04:33:14;8.00;99.90
20204;DHT22;10261;49.010;12.034;2023-04-12T04:34:16;8.00;99.90
20204;DHT22;10261;49.010;12.034;2023-04-12T04:35:20;8.00;99.90
20204;DHT22;10261;49.010;12.034;2023-04-12T04:36:23;8.00;99.90
20204;DHT22;10261;49.010;12.034;2023-04-12T04:37:27;8.00;99.90
20204;DHT22;10261;49.010;12.034;2023-04-12T04:38:30;8.10;99.90
20204;DHT22;10261;49.010;12.034;2023-04-12T04:39:34;8.10;99.90
20204;DHT22;10261;49.010;12.034;2023-04-12T04:40:37;8.10;99.90
20204;DHT22;10261;49.010;12.034;2023-04-12T04:41:39;8.10;99.90
20204;DHT22;10261;49.010;12.034;2023-04-12T04:42:42;8.10;99.90
20204;DHT22;10261;49.010;12.034;2023-04-12T04:43:46;8.10;99.90
20204;DHT22;10261;49.010;12.034;2023-04-12T04:44:49;8.10;99.90
20204;DHT22;10261;49.010;12.034;2023-04-12T04:45:52;8.10;99.90
20204;DHT22;10261;49.010;12.034;2023-04-12T04:47:59;8.00;99.90
20204;DHT22;10261;49.010;12.034;2023-04-12T04:49:02;8.00;99.90
20204;DHT22;10261;49.010;12.034;2023-04-12T04:50:06;8.00;99.90
20204;DHT22;10261;49.010;12.034;2023-04-12T04:51:08;8.10;99.90
20204;DHT22;10261;49.010;12.034;2023-04-12T04:52:13;8.00;99.90
20204;DHT22;10261;49.010;12.034;2023-04-12T04:53:17;8.00;99.90
20204;DHT22;10261;49.010;12.034;2023-04-12T04:54:21;8.00;99.90
20204;DHT22;10261;49.010;12.034;2023-04-12T04:55:24;8.00;99.90
20204;DHT22;10261;49.010;12.034;2023-04-12T04:56:26;8.00;99.90
20204;DHT22;10261;49.010;12.034;2023-04-12T04:57:29;8.10;99.90
20204;DHT22;10261;49.010;12.034;2023-04-12T04:58:31;8.00;99.90
20204;DHT22;10261;49.010;12.034;2023-04-12T04:59:34;8.10;99.90
20204;DHT22;10261;49.010;12.034;2023-04-12T05:01:39;8.10;99.90
20204;DHT22;10261;49.010;12.034;2023-04-12T05:02:42;8.10;99.90
20204;DHT22;10261;49.010;12.034;2023-04-12T05:03:46;8.10;99.90
20204;DHT22;10261;49.010;12.034;2023-04-12T05:04:50;8.10;99.90
20204;DHT22;10261;49.010;12.034;2023-04-12T05:05:56;8.10;99.90
20204;DHT22;10261;49.010;12.034;2023-04-12T05:06:59;8.10;99.90
20204;DHT22;10261;49.010;12.034;2023-04-12T05:08:03;8.10;99.90
20204;DHT22;10261;49.010;12.034;2023-04-12T05:09:05;8.10;99.90
20204;DHT22;10261;49.010;12.034;2023-04-12T05:10:09;8.10;99.90
20204;DHT22;10261;49.010;12.034;2023-04-12T05:11:11;8.10;99.90
20204;DHT22;10261;49.010;12.034;2023-04-12T05:12:14;8.10;99.90
20204;DHT22;10261;49.010;12.034;2023-04-12T05:13:17;8.10;99.90
20204;DHT22;10261;49.010;12.034;2023-04-12T05:14:19;8.10;99.90
20204;DHT22;10261;49.010;12.034;2023-04-12T05:15:24;8.10;99.90
20204;DHT22;10261;49.010;12.034;2023-04-12T05:17:30;7.50;99.90
20204;DHT22;10261;49.010;12.034;2023-04-12T05:18:32;7.00;99.90
20204;DHT22;10261;49.010;12.034;2023-04-12T05:19:35;6.70;99.90
20204;DHT22;10261;49.010;12.034;2023-04-12T05:20:37;6.50;99.90
20204;DHT22;10261;49.010;12.034;2023-04-12T05:21:40;6.30;99.90
20204;DHT22;10261;49.010;12.034;2023-04-12T05:22:42;6.30;99.90
20204;DHT22;10261;49.010;12.034;2023-04-12T05:23:47;6.20;99.90
20204;DHT22;10261;49.010;12.034;2023-04-12T05:24:49;6.20;99.90
20204;DHT22;10261;49.010;12.034;2023-04-12T05:25:52;6.20;99.90
20204;DHT22;10261;49.010;12.034;2023-04-12T05:26:54;6.20;99.90
20204;DHT22;10261;49.010;12.034;2023-04-12T05:27:58;6.30;99.90
20204;DHT22;10261;49.010;12.034;2023-04-12T05:28:59;6.20;99.90
20204;DHT22;10261;49.010;12.034;2023-04-12T05:30:03;6.20;99.90
20204;DHT22;10261;49.010;12.034;2023-04-12T05:31:05;5.70;99.90
20204;DHT22;10261;49.010;12.034;2023-04-12T05:32:09;5.10;99.90
20204;DHT22;10261;49.010;12.034;2023-04-12T05:33:11;4.80;99.90
20204;DHT22;10261;49.010;12.034;2023-04-12T05:34:14;4.70;99.90
20204;DHT22;10261;49.010;12.034;2023-04-12T05:35:16;4.80;99.90
20204;DHT22;10261;49.010;12.034;2023-04-12T05:36:19;4.80;99.90
20204;DHT22;10261;49.010;12.034;2023-04-12T05:37:22;4.80;99.90
20204;DHT22;10261;49.010;12.034;2023-04-12T05:38:24;4.80;99.90
20204;DHT22;10261;49.010;12.034;2023-04-12T05:39:29;4.70;99.90
20204;DHT22;10261;49.010;12.034;2023-04-12T05:40:32;4.80;99.90
20204;DHT22;10261;49.010;12.034;2023-04-12T05:41:34;4.80;99.90
20204;DHT22;10261;49.010;12.034;2023-04-12T05:42:37;4.80;99.90
20204;DHT22;10261;49.010;12.034;2023-04-12T05:43:39;4.80;99.90
20204;DHT22;10261;49.010;12.034;2023-04-12T05:44:42;4.80;99.90
20204;DHT22;10261;49.010;12.034;2023-04-12T05:45:49;4.80;99.90
20204;DHT22;10261;49.010;12.034;2023-04-12T05:46:52;4.70;99.90
20204;DHT22;10261;49.010;12.034;2023-04-12T05:47:54;4.80;99.90
20204;DHT22;10261;49.010;12.034;2023-04-12T05:48:57;4.80;99.90
20204;DHT22;10261;49.010;12.034;2023-04-12T05:50:00;4.80;99.90
20204;DHT22;10261;49.010;12.034;2023-04-12T05:51:04;4.80;99.90
20204;DHT22;10261;49.010;12.034;2023-04-12T05:53:09;5.10;99.90
20204;DHT22;10261;49.010;12.034;2023-04-12T05:54:14;5.20;99.90
20204;DHT22;10261;49.010;12.034;2023-04-12T05:55:22;5.20;99.90
20204;DHT22;10261;49.010;12.034;2023-04-12T05:57:28;5.50;99.90
20204;DHT22;10261;49.010;12.034;2023-04-12T05:58:30;6.70;99.90
20204;DHT22;10261;49.010;12.034;2023-04-12T05:59:34;5.90;99.90
20204;DHT22;10261;49.010;12.034;2023-04-12T06:00:36;5.40;99.90
20204;DHT22;10261;49.010;12.034;2023-04-12T06:02:43;5.70;99.90
20204;DHT22;10261;49.010;12.034;2023-04-12T06:03:47;6.10;99.90
20204;DHT22;10261;49.010;12.034;2023-04-12T06:04:49;5.90;99.90
20204;DHT22;10261;49.010;12.034;2023-04-12T06:05:53;5.70;99.90
20204;DHT22;10261;49.010;12.034;2023-04-12T06:06:56;5.90;99.90
20204;DHT22;10261;49.010;12.034;2023-04-12T06:07:58;6.20;99.90
20204;DHT22;10261;49.010;12.034;2023-04-12T06:09:01;7.10;99.90
20204;DHT22;10261;49.010;12.034;2023-04-12T06:10:06;6.80;99.90
20204;DHT22;10261;49.010;12.034;2023-04-12T06:11:12;7.30;99.90
20204;DHT22;10261;49.010;12.034;2023-04-12T06:12:14;7.90;99.90
20204;DHT22;10261;49.010;12.034;2023-04-12T06:13:16;7.30;99.90
20204;DHT22;10261;49.010;12.034;2023-04-12T06:15:22;6.70;99.90
20204;DHT22;10261;49.010;12.034;2023-04-12T06:18:30;7.00;99.90
20204;DHT22;10261;49.010;12.034;2023-04-12T06:19:33;7.90;99.90
20204;DHT22;10261;49.010;12.034;2023-04-12T06:20:37;9.00;99.90
20204;DHT22;10261;49.010;12.034;2023-04-12T06:21:40;8.00;99.90
20204;DHT22;10261;49.010;12.034;2023-04-12T06:22:43;6.80;99.90
20204;DHT22;10261;49.010;12.034;2023-04-12T06:23:44;6.60;99.90
20204;DHT22;10261;49.010;12.034;2023-04-12T06:24:47;6.00;99.90
20204;DHT22;10261;49.010;12.034;2023-04-12T06:25:49;5.80;99.90
20204;DHT22;10261;49.010;12.034;2023-04-12T06:26:55;5.70;99.90
20204;DHT22;10261;49.010;12.034;2023-04-12T06:27:57;6.00;99.90
20204;DHT22;10261;49.010;12.034;2023-04-12T06:30:02;6.00;99.90
20204;DHT22;10261;49.010;12.034;2023-04-12T06:31:05;6.00;99.90
20204;DHT22;10261;49.010;12.034;2023-04-12T06:32:08;5.90;99.90
20204;DHT22;10261;49.010;12.034;2023-04-12T06:33:11;5.60;99.90
20204;DHT22;10261;49.010;12.034;2023-04-12T06:34:14;5.50;99.90
20204;DHT22;10261;49.010;12.034;2023-04-12T06:37:24;5.50;99.90
20204;DHT22;10261;49.010;12.034;2023-04-12T06:38:27;5.50;99.90
20204;DHT22;10261;49.010;12.034;2023-04-12T06:39:29;5.40;99.90
20204;DHT22;10261;49.010;12.034;2023-04-12T06:40:32;5.20;99.90
20204;DHT22;10261;49.010;12.034;2023-04-12T06:41:35;5.20;99.90
20204;DHT22;10261;49.010;12.034;2023-04-12T06:42:39;5.40;99.90
20204;DHT22;10261;49.010;12.034;2023-04-12T06:43:42;5.70;99.90
20204;DHT22;10261;49.010;12.034;2023-04-12T06:44:44;5.40;99.90
20204;DHT22;10261;49.010;12.034;2023-04-12T06:45:47;5.40;99.90
20204;DHT22;10261;49.010;12.034;2023-04-12T06:46:50;5.40;99.90
20204;DHT22;10261;49.010;12.034;2023-04-12T06:47:53;5.50;99.90
20204;DHT22;10261;49.010;12.034;2023-04-12T06:48:57;5.50;99.90
20204;DHT22;10261;49.010;12.034;2023-04-12T06:50:01;6.30;99.90
20204;DHT22;10261;49.010;12.034;2023-04-12T06:51:04;6.80;99.90
20204;DHT22;10261;49.010;12.034;2023-04-12T06:52:07;6.20;99.90
20204;DHT22;10261;49.010;12.034;2023-04-12T06:53:10;5.90;99.90
20204;DHT22;10261;49.010;12.034;2023-04-12T06:54:14;5.90;99.90
20204;DHT22;10261;49.010;12.034;2023-04-12T06:55:17;5.80;99.90
20204;DHT22;10261;49.010;12.034;2023-04-12T06:56:19;6.10;99.90
20204;DHT22;10261;49.010;12.034;2023-04-12T06:57:22;6.10;99.90
20204;DHT22;10261;49.010;12.034;2023-04-12T06:58:25;5.90;99.90
20204;DHT22;10261;49.010;12.034;2023-04-12T06:59:28;6.00;99.90
20204;DHT22;10261;49.010;12.034;2023-04-12T07:01:34;6.20;99.90
20204;DHT22;10261;49.010;12.034;2023-04-12T07:02:37;6.20;99.90
20204;DHT22;10261;49.010;12.034;2023-04-12T07:03:40;6.00;99.90
20204;DHT22;10261;49.010;12.034;2023-04-12T07:04:42;5.90;99.90
20204;DHT22;10261;49.010;12.034;2023-04-12T07:05:45;5.90;99.90
20204;DHT22;10261;49.010;12.034;2023-04-12T07:06:48;5.90;99.90
20204;DHT22;10261;49.010;12.034;2023-04-12T07:07:50;5.90;99.90
20204;DHT22;10261;49.010;12.034;2023-04-12T07:08:53;5.90;99.90
20204;DHT22;10261;49.010;12.034;2023-04-12T07:11:00;5.90;99.90
20204;DHT22;10261;49.010;12.034;2023-04-12T07:13:26;6.00;99.90
20204;DHT22;10261;49.010;12.034;2023-04-12T07:14:28;5.90;99.90
20204;DHT22;10261;49.010;12.034;2023-04-12T07:15:31;5.70;99.90
20204;DHT22;10261;49.010;12.034;2023-04-12T07:16:33;5.60;99.90
20204;DHT22;10261;49.010;12.034;2023-04-12T07:20:51;5.90;99.90
20204;DHT22;10261;49.010;12.034;2023-04-12T07:21:53;5.90;99.90
20204;DHT22;10261;49.010;12.034;2023-04-12T07:23:59;6.10;99.90